Time;durP1;ratioP1;P1;durP2;ratioP2;P2;SDS_P1;SDS_P2;PMS_P1;PMS_P2;Temp;Humidity;BMP_temperature;BMP_pressure;BME280_temperature;BME280_humidity;BME280_pressure;Samples;Min_cycle;Max_cycle;Signal;HPM_P1;HPM_P2
2024/03/14 00:00:05;;;;;;;8.77;5.43;;;;;;;;;;5024575;28;20045;-60
2024/03/14 00:02:31;;;;;;;7.90;5.03;;;;;;;;;;5058107;28;20081;-61
2024/03/14 00:04:58;;;;;;;8.57;5.78;;;;;;;;;;5040644;28;20141;-61
2024/03/14 00:07:25;;;;;;;9.07;5.55;;;;;;;;;;5033161;28;20052;-61
2024/03/14 00:09:51;;;;;;;9.85;6.05;;;;;;;;;;5026972;28;20098;-60
2024/03/14 00:12:17;;;;;;;9.88;6.45;;;;;;;;;;5036928;28;21101;-60
2024/03/14 00:14:50;;;;;;;11.68;6.93;;;;;;;;;;5049719;28;20209;-58
2024/03/14 00:17:20;;;;;;;10.73;7.45;;;;;;;;;;5030633;28;20061;-60
2024/03/14 00:19:49;;;;;;;11.40;7.20;;;;;;;;;;5035968;28;20059;-61
2024/03/14 00:22:19;;;;;;;11.65;7.43;;;;;;;;;;5028190;28;20076;-60
2024/03/14 00:24:45;;;;;;;9.98;7.03;;;;;;;;;;5036460;28;20048;-60
2024/03/14 00:27:13;;;;;;;11.35;7.75;;;;;;;;;;5034304;28;20049;-60
2024/03/14 00:29:42;;;;;;;11.40;7.30;;;;;;;;;;5039382;28;20049;-60
2024/03/14 00:32:08;;;;;;;10.70;6.88;;;;;;;;;;5044168;28;20294;-60
2024/03/14 00:34:36;;;;;;;11.25;7.53;;;;;;;;;;5025371;28;20053;-60
2024/03/14 00:37:02;;;;;;;11.68;7.65;;;;;;;;;;5044619;28;20792;-60
2024/03/14 00:39:31;;;;;;;11.02;6.85;;;;;;;;;;5018154;28;20054;-61
2024/03/14 00:41:58;;;;;;;10.68;7.13;;;;;;;;;;5023334;28;20046;-60
2024/03/14 00:44:25;;;;;;;10.48;6.60;;;;;;;;;;5019252;28;20053;-61
2024/03/14 00:46:51;;;;;;;10.60;6.65;;;;;;;;;;5034524;28;20558;-60
2024/03/14 00:49:18;;;;;;;9.85;6.65;;;;;;;;;;5040053;28;20077;-60
2024/03/14 00:51:44;;;;;;;9.60;6.20;;;;;;;;;;5025949;28;20057;-60
2024/03/14 00:54:11;;;;;;;8.75;6.15;;;;;;;;;;5031727;28;20045;-61
2024/03/14 00:56:37;;;;;;;9.13;6.45;;;;;;;;;;5030461;28;20118;-60
2024/03/14 00:59:03;;;;;;;8.25;6.70;;;;;;;;;;5029458;28;20132;-61
2024/03/14 01:01:30;;;;;;;10.10;6.60;;;;;;;;;;5045088;28;20069;-60
2024/03/14 01:03:56;;;;;;;8.90;6.60;;;;;;;;;;5036197;28;20076;-60
2024/03/14 01:06:24;;;;;;;9.32;5.88;;;;;;;;;;5031749;28;20136;-60
2024/03/14 01:08:51;;;;;;;;;;;;;;;;;;5028072;28;20433;-60
2024/03/14 01:11:20;;;;;;;9.18;6.55;;;;;;;;;;5038865;28;20154;-60
2024/03/14 01:13:47;;;;;;;10.90;5.95;;;;;;;;;;5035440;28;20107;-60
2024/03/14 01:16:13;;;;;;;10.30;6.30;;;;;;;;;;5046886;28;20053;-60
2024/03/14 01:18:40;;;;;;;8.38;5.95;;;;;;;;;;5042419;28;20052;-60
2024/03/14 01:21:08;;;;;;;10.85;7.00;;;;;;;;;;5028067;28;20049;-61
2024/03/14 01:23:36;;;;;;;10.20;7.10;;;;;;;;;;5024897;28;20064;-60
2024/03/14 01:26:03;;;;;;;13.02;7.57;;;;;;;;;;5021380;28;20103;-60
2024/03/14 01:28:30;;;;;;;11.43;7.70;;;;;;;;;;5043538;28;20045;-61
2024/03/14 01:30:58;;;;;;;13.68;8.68;;;;;;;;;;5044309;28;20049;-60
2024/03/14 01:33:25;;;;;;;12.15;8.38;;;;;;;;;;5049317;28;20212;-60
2024/03/14 01:35:58;;;;;;;12.27;8.73;;;;;;;;;;5027536;28;20087;-60
2024/03/14 01:38:25;;;;;;;11.70;8.98;;;;;;;;;;5028491;28;20152;-60
2024/03/14 01:40:51;;;;;;;14.60;8.18;;;;;;;;;;5055144;28;20063;-60
2024/03/14 01:43:18;;;;;;;14.15;9.48;;;;;;;;;;5023632;28;20115;-59
2024/03/14 01:45:47;;;;;;;11.90;9.30;;;;;;;;;;5045326;28;20045;-60
2024/03/14 01:48:14;;;;;;;13.88;9.50;;;;;;;;;;5046629;28;20048;-61
2024/03/14 01:50:41;;;;;;;11.50;9.30;;;;;;;;;;5039383;28;20544;-61
2024/03/14 01:53:07;;;;;;;14.77;9.38;;;;;;;;;;5024175;28;20045;-60
2024/03/14 01:55:34;;;;;;;12.63;8.95;;;;;;;;;;5023590;28;20139;-61
2024/03/14 01:58:00;;;;;;;13.05;9.50;;;;;;;;;;5051355;28;20080;-60
2024/03/14 02:00:33;;;;;;;13.63;8.90;;;;;;;;;;5047059;28;20061;-61
2024/03/14 02:03:00;;;;;;;16.35;9.15;;;;;;;;;;5045774;28;20497;-59
2024/03/14 02:05:30;;;;;;;12.65;8.65;;;;;;;;;;5028851;28;20054;-60
2024/03/14 02:07:56;;;;;;;11.75;8.60;;;;;;;;;;5037910;28;20529;-60
2024/03/14 02:10:25;;;;;;;12.23;8.68;;;;;;;;;;5033455;28;20426;-60
2024/03/14 02:12:54;;;;;;;16.23;8.38;;;;;;;;;;5049012;28;20084;-60
2024/03/14 02:15:23;;;;;;;12.43;8.60;;;;;;;;;;5037323;28;20152;-60
2024/03/14 02:17:50;;;;;;;10.95;8.48;;;;;;;;;;5044351;28;20048;-60
2024/03/14 02:20:17;;;;;;;10.57;8.30;;;;;;;;;;5053491;28;20045;-60
2024/03/14 02:22:44;;;;;;;11.75;8.55;;;;;;;;;;5041221;28;20076;-59
2024/03/14 02:25:13;;;;;;;10.23;7.97;;;;;;;;;;5037672;28;20037;-61
2024/03/14 02:27:40;;;;;;;13.98;8.50;;;;;;;;;;5046678;28;20057;-61
2024/03/14 02:30:07;;;;;;;12.82;9.05;;;;;;;;;;5042683;28;20489;-60
2024/03/14 02:32:33;;;;;;;10.70;8.50;;;;;;;;;;5031515;28;20139;-60
2024/03/14 02:35:03;;;;;;;12.80;9.05;;;;;;;;;;5038490;28;20045;-60
2024/03/14 02:37:32;;;;;;;11.63;8.70;;;;;;;;;;5019738;28;20088;-61
2024/03/14 02:39:58;;;;;;;13.65;9.27;;;;;;;;;;5039721;28;20049;-60
2024/03/14 02:42:25;;;;;;;12.85;9.23;;;;;;;;;;5046690;28;20049;-60
2024/03/14 02:44:51;;;;;;;11.13;7.75;;;;;;;;;;5027657;28;20476;-62
2024/03/14 02:47:18;;;;;;;11.80;8.40;;;;;;;;;;5029515;28;20055;-60
2024/03/14 02:49:44;;;;;;;12.18;9.32;;;;;;;;;;5019685;28;20053;-60
2024/03/14 02:52:11;;;;;;;14.25;9.35;;;;;;;;;;5030201;28;20057;-63
2024/03/14 02:54:37;;;;;;;11.88;8.98;;;;;;;;;;5050076;28;20049;-62
2024/03/14 02:57:04;;;;;;;11.98;9.02;;;;;;;;;;5043809;28;20076;-62
2024/03/14 02:59:31;;;;;;;11.88;8.60;;;;;;;;;;5029162;28;20045;-61
2024/03/14 03:01:59;;;;;;;15.48;9.23;;;;;;;;;;5036041;28;20488;-61
2024/03/14 03:04:30;;;;;;;21.00;9.93;;;;;;;;;;5045645;28;20053;-62
2024/03/14 03:06:58;;;;;;;13.55;8.57;;;;;;;;;;5034799;28;20061;-62
2024/03/14 03:09:27;;;;;;;14.07;9.38;;;;;;;;;;5043342;28;20044;-61
2024/03/14 03:11:54;;;;;;;13.48;9.30;;;;;;;;;;5040987;28;20041;-61
2024/03/14 03:14:21;;;;;;;12.68;8.25;;;;;;;;;;5042392;28;20055;-61
2024/03/14 03:16:47;;;;;;;13.23;8.98;;;;;;;;;;5038708;28;20045;-62
2024/03/14 03:19:14;;;;;;;12.77;9.70;;;;;;;;;;5035872;28;20505;-61
2024/03/14 03:21:40;;;;;;;12.93;8.77;;;;;;;;;;5035590;28;20049;-61
2024/03/14 03:24:07;;;;;;;14.90;9.43;;;;;;;;;;5021181;28;20046;-61
2024/03/14 03:26:34;;;;;;;15.43;10.30;;;;;;;;;;5030734;28;20045;-60
2024/03/14 03:29:06;;;;;;;14.85;10.10;;;;;;;;;;5028967;28;20051;-60
2024/03/14 03:31:32;;;;;;;12.30;9.18;;;;;;;;;;5041120;28;20053;-60
2024/03/14 03:33:59;;;;;;;12.43;9.07;;;;;;;;;;5044997;28;20045;-59
2024/03/14 03:36:26;;;;;;;13.18;9.52;;;;;;;;;;5027048;28;20057;-61
2024/03/14 03:38:54;;;;;;;12.82;9.23;;;;;;;;;;5035610;28;20414;-60
2024/03/14 03:41:23;;;;;;;13.13;9.05;;;;;;;;;;5035998;28;20089;-60
2024/03/14 03:43:50;;;;;;;12.60;9.85;;;;;;;;;;5040940;28;20144;-61
2024/03/14 03:46:16;;;;;;;12.27;9.27;;;;;;;;;;5027565;28;20055;-61
2024/03/14 03:48:43;;;;;;;13.50;9.60;;;;;;;;;;5022554;28;20081;-61
2024/03/14 03:51:12;;;;;;;14.18;9.82;;;;;;;;;;5039141;28;20088;-60
2024/03/14 03:53:38;;;;;;;14.43;9.40;;;;;;;;;;5032692;28;20052;-61
2024/03/14 03:56:05;;;;;;;14.02;9.57;;;;;;;;;;5034234;28;20053;-61
2024/03/14 03:58:35;;;;;;;12.98;10.00;;;;;;;;;;5040785;28;20538;-61
2024/03/14 04:01:12;;;;;;;13.70;8.57;;;;;;;;;;5031556;28;20405;-61
2024/03/14 04:03:41;;;;;;;14.52;10.15;;;;;;;;;;5041917;28;20055;-60
2024/03/14 04:06:12;;;;;;;14.52;10.00;;;;;;;;;;5030679;28;20046;-60
2024/03/14 04:08:39;;;;;;;13.38;9.65;;;;;;;;;;5042202;28;20678;-61
2024/03/14 04:11:07;;;;;;;14.32;9.75;;;;;;;;;;5026004;28;20041;-61
2024/03/14 04:13:34;;;;;;;14.63;10.23;;;;;;;;;;5035560;28;20139;-60
2024/03/14 04:16:01;;;;;;;15.13;9.57;;;;;;;;;;5021463;28;20145;-60
2024/03/14 04:18:30;;;;;;;12.85;9.18;;;;;;;;;;5037442;28;20069;-60
2024/03/14 04:20:56;;;;;;;16.10;10.30;;;;;;;;;;5029702;28;20138;-61
2024/03/14 04:23:26;;;;;;;13.13;9.52;;;;;;;;;;5030320;28;20720;-61
2024/03/14 04:25:58;;;;;;;11.73;9.27;;;;;;;;;;5049396;28;20516;-61
2024/03/14 04:28:25;;;;;;;14.57;9.45;;;;;;;;;;5032762;28;20703;-61
2024/03/14 04:30:52;;;;;;;12.00;8.93;;;;;;;;;;5052478;28;20053;-60
2024/03/14 04:33:19;;;;;;;13.57;9.23;;;;;;;;;;5024129;28;20548;-61
2024/03/14 04:35:48;;;;;;;12.35;8.73;;;;;;;;;;5041490;28;20064;-61
2024/03/14 04:38:15;;;;;;;14.77;9.40;;;;;;;;;;5034145;28;20052;-62
2024/03/14 04:40:43;;;;;;;14.43;8.68;;;;;;;;;;5035799;28;20374;-62
2024/03/14 04:43:09;;;;;;;15.48;8.73;;;;;;;;;;5029526;28;20059;-61
2024/03/14 04:45:36;;;;;;;14.55;9.20;;;;;;;;;;5044884;28;20121;-61
2024/03/14 04:48:04;;;;;;;14.02;8.90;;;;;;;;;;5045584;28;20605;-61
2024/03/14 04:50:32;;;;;;;11.90;8.07;;;;;;;;;;5044988;28;20041;-61
2024/03/14 04:52:59;;;;;;;13.15;8.52;;;;;;;;;;5038708;28;20052;-62
2024/03/14 04:55:25;;;;;;;14.60;8.38;;;;;;;;;;5035104;28;20060;-61
2024/03/14 04:57:52;;;;;;;13.15;9.43;;;;;;;;;;5037522;28;20138;-62
2024/03/14 05:02:51;;;;;;;11.57;8.65;;;;;;;;;;5041474;28;20060;-62
2024/03/14 05:05:20;;;;;;;13.13;8.18;;;;;;;;;;5041126;28;20061;-62
2024/03/14 05:07:48;;;;;;;11.68;8.55;;;;;;;;;;5035162;28;20044;-61
2024/03/14 05:10:21;;;;;;;12.10;7.82;;;;;;;;;;5035840;28;20048;-61
2024/03/14 05:12:48;;;;;;;14.70;7.95;;;;;;;;;;5030943;28;20701;-62
2024/03/14 05:15:15;;;;;;;10.98;8.00;;;;;;;;;;5034813;28;20073;-61
2024/03/14 05:17:42;;;;;;;9.27;7.03;;;;;;;;;;5044048;28;20613;-61
2024/03/14 05:20:13;;;;;;;11.38;8.13;;;;;;;;;;5029786;28;20061;-61
2024/03/14 05:22:41;;;;;;;10.93;7.40;;;;;;;;;;5048234;28;20056;-61
2024/03/14 05:25:09;;;;;;;11.90;7.55;;;;;;;;;;5037624;28;20683;-61
2024/03/14 05:27:36;;;;;;;10.48;7.30;;;;;;;;;;5020470;28;20608;-61
2024/03/14 05:30:02;;;;;;;11.15;7.57;;;;;;;;;;5043917;28;20041;-62
2024/03/14 05:32:29;;;;;;;10.00;7.22;;;;;;;;;;5045013;28;20083;-62
2024/03/14 05:34:57;;;;;;;9.45;7.03;;;;;;;;;;5031505;28;20052;-62
2024/03/14 05:37:26;;;;;;;10.43;6.68;;;;;;;;;;5037604;28;20115;-60
2024/03/14 05:39:53;;;;;;;11.15;7.97;;;;;;;;;;5051598;28;20072;-60
2024/03/14 05:42:19;;;;;;;12.15;7.32;;;;;;;;;;5053859;28;20091;-60
2024/03/14 05:44:49;;;;;;;9.30;6.90;;;;;;;;;;5038463;28;20071;-61
2024/03/14 05:47:16;;;;;;;9.93;6.70;;;;;;;;;;5041498;28;20052;-59
2024/03/14 05:49:42;;;;;;;11.90;7.60;;;;;;;;;;5028596;28;20075;-59
2024/03/14 05:52:10;;;;;;;9.45;6.93;;;;;;;;;;5027898;28;20073;-60
2024/03/14 05:54:37;;;;;;;10.77;7.00;;;;;;;;;;5026934;28;20156;-61
2024/03/14 05:57:03;;;;;;;11.95;7.53;;;;;;;;;;5041982;28;20132;-59
2024/03/14 05:59:30;;;;;;;9.43;6.70;;;;;;;;;;5030478;28;20049;-59
2024/03/14 06:01:57;;;;;;;12.75;7.13;;;;;;;;;;5047877;28;20906;-60
2024/03/14 06:04:23;;;;;;;9.82;6.78;;;;;;;;;;5036321;28;20513;-60
2024/03/14 06:06:50;;;;;;;9.38;6.75;;;;;;;;;;5027581;28;20130;-60
2024/03/14 06:09:17;;;;;;;8.70;6.40;;;;;;;;;;5041768;28;20049;-60
2024/03/14 06:11:44;;;;;;;10.60;7.13;;;;;;;;;;5036610;28;20056;-60
2024/03/14 06:14:10;;;;;;;10.65;7.30;;;;;;;;;;5036573;28;20064;-59
2024/03/14 06:16:37;;;;;;;9.60;6.40;;;;;;;;;;5047990;28;20733;-60
2024/03/14 06:19:03;;;;;;;10.20;7.00;;;;;;;;;;5033557;28;20131;-60
2024/03/14 06:21:30;;;;;;;10.40;7.20;;;;;;;;;;5035716;28;20052;-60
2024/03/14 06:23:56;;;;;;;9.35;6.72;;;;;;;;;;5046022;28;20132;-60
2024/03/14 06:26:23;;;;;;;9.70;6.60;;;;;;;;;;5041742;28;20045;-60
2024/03/14 06:28:52;;;;;;;11.15;7.32;;;;;;;;;;5046410;28;20050;-59
2024/03/14 06:31:19;;;;;;;9.93;6.60;;;;;;;;;;5031254;28;20692;-59
2024/03/14 06:33:46;;;;;;;11.02;6.35;;;;;;;;;;5033708;28;20049;-60
2024/03/14 06:36:12;;;;;;;10.80;6.38;;;;;;;;;;5037466;28;20048;-60
2024/03/14 06:38:39;;;;;;;8.07;6.40;;;;;;;;;;5038553;28;20080;-60
2024/03/14 06:41:05;;;;;;;9.05;6.30;;;;;;;;;;5036791;28;20088;-60
2024/03/14 06:43:33;;;;;;;10.93;6.60;;;;;;;;;;5031457;28;20702;-60
2024/03/14 06:45:59;;;;;;;10.68;6.85;;;;;;;;;;5038503;28;20042;-60
2024/03/14 06:48:25;;;;;;;9.07;6.38;;;;;;;;;;5028767;28;20051;-59
2024/03/14 06:50:52;;;;;;;9.27;6.40;;;;;;;;;;5038563;28;20060;-59
2024/03/14 06:53:18;;;;;;;8.60;6.35;;;;;;;;;;5025785;28;20062;-60
2024/03/14 06:55:49;;;;;;;10.65;6.60;;;;;;;;;;5029981;28;20072;-61
2024/03/14 06:58:15;;;;;;;13.27;6.88;;;;;;;;;;5046222;28;20084;-61
2024/03/14 07:00:42;;;;;;;8.48;6.45;;;;;;;;;;5034950;28;20044;-61
2024/03/14 07:03:09;;;;;;;7.88;6.22;;;;;;;;;;5039638;28;20129;-61
2024/03/14 07:05:36;;;;;;;10.68;6.18;;;;;;;;;;5041188;28;20082;-61
2024/03/14 07:08:03;;;;;;;10.48;6.55;;;;;;;;;;5041907;28;20052;-60
2024/03/14 07:10:32;;;;;;;9.52;6.03;;;;;;;;;;5035710;28;20124;-59
2024/03/14 07:12:58;;;;;;;9.40;6.57;;;;;;;;;;5031205;28;20060;-61
2024/03/14 07:15:25;;;;;;;8.70;5.88;;;;;;;;;;5033951;28;20128;-61
2024/03/14 07:17:58;;;;;;;8.55;6.38;;;;;;;;;;5040267;28;20076;-61
2024/03/14 07:20:33;;;;;;;9.00;6.38;;;;;;;;;;5045916;28;20397;-61
2024/03/14 07:22:59;;;;;;;9.85;6.07;;;;;;;;;;5042353;28;20485;-60
2024/03/14 07:25:26;;;;;;;9.65;6.68;;;;;;;;;;5034747;28;20581;-60
2024/03/14 07:27:52;;;;;;;9.27;5.80;;;;;;;;;;5034430;28;20452;-60
2024/03/14 07:30:24;;;;;;;8.27;5.85;;;;;;;;;;5021295;28;20462;-59
2024/03/14 07:32:52;;;;;;;8.02;6.25;;;;;;;;;;5029679;28;20036;-60
2024/03/14 07:35:18;;;;;;;7.90;6.22;;;;;;;;;;5032126;28;20051;-60
2024/03/14 07:37:47;;;;;;;7.93;6.10;;;;;;;;;;5040540;28;20568;-60
2024/03/14 07:40:16;;;;;;;9.00;5.68;;;;;;;;;;5030980;28;20055;-60
2024/03/14 07:42:44;;;;;;;8.20;5.90;;;;;;;;;;5044648;28;20511;-62
2024/03/14 07:45:17;;;;;;;9.10;5.95;;;;;;;;;;5042424;28;20053;-61
2024/03/14 07:47:44;;;;;;;7.68;5.60;;;;;;;;;;5033483;28;20057;-62
2024/03/14 07:50:11;;;;;;;7.35;5.38;;;;;;;;;;5026447;28;20038;-61
2024/03/14 07:52:39;;;;;;;10.25;5.60;;;;;;;;;;5036302;28;20045;-62
2024/03/14 07:55:06;;;;;;;7.50;5.40;;;;;;;;;;5034404;28;20152;-62
2024/03/14 07:57:35;;;;;;;9.15;5.55;;;;;;;;;;5051189;28;20083;-62
2024/03/14 08:00:03;;;;;;;6.30;4.28;;;;;;;;;;5040918;28;20049;-62
2024/03/14 08:02:33;;;;;;;8.80;5.50;;;;;;;;;;5029719;28;20533;-62
2024/03/14 08:05:04;;;;;;;8.45;6.20;;;;;;;;;;5032194;28;20052;-62
2024/03/14 08:07:30;;;;;;;7.22;5.65;;;;;;;;;;5022309;28;20064;-61
2024/03/14 08:09:57;;;;;;;8.65;5.72;;;;;;;;;;5031226;28;20992;-61
2024/03/14 08:12:24;;;;;;;8.20;5.22;;;;;;;;;;5044434;28;20057;-62
2024/03/14 08:14:58;;;;;;;7.78;5.13;;;;;;;;;;5035510;28;20045;-62
2024/03/14 08:17:26;;;;;;;6.88;5.07;;;;;;;;;;5032683;28;20053;-61
2024/03/14 08:19:56;;;;;;;8.00;5.15;;;;;;;;;;5037826;28;20159;-62
2024/03/14 08:22:26;;;;;;;13.02;6.15;;;;;;;;;;5029762;28;20144;-62
2024/03/14 08:24:52;;;;;;;8.63;5.45;;;;;;;;;;5037929;28;20051;-61
2024/03/14 08:27:24;;;;;;;7.00;5.57;;;;;;;;;;5030638;28;20092;-61
2024/03/14 08:29:52;;;;;;;8.65;5.88;;;;;;;;;;5039440;28;20045;-63
2024/03/14 08:32:18;;;;;;;6.68;5.25;;;;;;;;;;5042551;28;20057;-61
2024/03/14 08:34:45;;;;;;;7.63;5.43;;;;;;;;;;5049950;28;20055;-61
2024/03/14 08:37:11;;;;;;;8.15;5.30;;;;;;;;;;5030225;28;20096;-61
2024/03/14 08:39:38;;;;;;;10.35;5.82;;;;;;;;;;5041017;28;20144;-62
2024/03/14 08:42:08;;;;;;;8.82;5.45;;;;;;;;;;5049180;28;20139;-62
2024/03/14 08:44:34;;;;;;;7.68;6.13;;;;;;;;;;5022764;28;20052;-62
2024/03/14 08:47:00;;;;;;;8.43;5.68;;;;;;;;;;5031505;28;20148;-62
2024/03/14 08:49:31;;;;;;;9.15;5.40;;;;;;;;;;5050370;28;20135;-62
2024/03/14 08:51:59;;;;;;;7.60;5.65;;;;;;;;;;5026068;28;20151;-61
2024/03/14 08:56:52;;;;;;;8.73;5.65;;;;;;;;;;5033871;28;20044;-61
2024/03/14 08:59:20;;;;;;;6.93;4.82;;;;;;;;;;5037431;28;20045;-62
2024/03/14 09:01:47;;;;;;;7.93;5.22;;;;;;;;;;5031694;28;20579;-61
2024/03/14 09:04:14;;;;;;;7.80;5.45;;;;;;;;;;5024527;28;20057;-61
2024/03/14 09:06:42;;;;;;;6.90;4.88;;;;;;;;;;5037013;28;20310;-61
2024/03/14 09:09:23;;;;;;;6.72;5.18;;;;;;;;;;5032455;28;20406;-62
2024/03/14 09:11:51;;;;;;;6.82;4.47;;;;;;;;;;5044620;28;20547;-62
2024/03/14 09:14:17;;;;;;;7.22;4.72;;;;;;;;;;5021000;28;20056;-62
2024/03/14 09:16:47;;;;;;;6.32;5.03;;;;;;;;;;5044409;28;20144;-62
2024/03/14 09:19:13;;;;;;;9.27;5.22;;;;;;;;;;5036834;28;20359;-62
2024/03/14 09:21:40;;;;;;;5.28;4.47;;;;;;;;;;5047069;28;20114;-62
2024/03/14 09:24:07;;;;;;;7.28;5.05;;;;;;;;;;5035381;28;20748;-62
2024/03/14 09:26:38;;;;;;;7.55;5.50;;;;;;;;;;5035418;28;20053;-62
2024/03/14 09:29:06;;;;;;;7.80;4.72;;;;;;;;;;5043962;28;20048;-61
2024/03/14 09:31:32;;;;;;;8.00;5.10;;;;;;;;;;5040279;28;20085;-62
2024/03/14 09:33:58;;;;;;;8.10;4.32;;;;;;;;;;5040017;28;20156;-62
2024/03/14 09:36:26;;;;;;;6.53;4.40;;;;;;;;;;5032057;28;20049;-62
2024/03/14 09:38:53;;;;;;;8.40;4.18;;;;;;;;;;5041227;28;20048;-62
2024/03/14 09:41:20;;;;;;;4.88;3.80;;;;;;;;;;5035667;28;20470;-62
2024/03/14 09:43:49;;;;;;;4.85;3.78;;;;;;;;;;5029998;28;20107;-62
2024/03/14 09:46:19;;;;;;;6.07;4.15;;;;;;;;;;5042568;28;20642;-62
2024/03/14 09:48:46;;;;;;;6.63;3.67;;;;;;;;;;5021984;28;20064;-62
2024/03/14 09:51:13;;;;;;;4.88;3.75;;;;;;;;;;5053321;28;20122;-62
2024/03/14 09:53:41;;;;;;;5.18;3.90;;;;;;;;;;5052808;28;20049;-62
2024/03/14 09:56:08;;;;;;;5.18;3.97;;;;;;;;;;5025532;28;20095;-62
2024/03/14 09:58:34;;;;;;;5.72;4.07;;;;;;;;;;5037126;28;20772;-62
2024/03/14 10:01:03;;;;;;;5.13;3.85;;;;;;;;;;5045367;28;20928;-62
2024/03/14 10:03:32;;;;;;;6.07;3.85;;;;;;;;;;5028911;28;20041;-62
2024/03/14 10:05:59;;;;;;;5.93;3.45;;;;;;;;;;5035018;28;20046;-62
2024/03/14 10:08:28;;;;;;;6.23;3.77;;;;;;;;;;5038419;28;20057;-62
2024/03/14 10:10:54;;;;;;;4.53;3.45;;;;;;;;;;5039311;28;20252;-62
2024/03/14 10:13:25;;;;;;;4.10;3.17;;;;;;;;;;5021682;28;20041;-62
2024/03/14 10:15:52;;;;;;;5.45;3.97;;;;;;;;;;5034477;28;20045;-63
2024/03/14 10:18:18;;;;;;;5.22;3.67;;;;;;;;;;5037677;28;20053;-62
2024/03/14 10:20:45;;;;;;;6.95;3.53;;;;;;;;;;5027751;28;20049;-62
2024/03/14 10:23:15;;;;;;;5.30;3.40;;;;;;;;;;5040819;28;20952;-62
2024/03/14 10:25:41;;;;;;;5.32;3.70;;;;;;;;;;5039850;28;20045;-62
2024/03/14 10:28:14;;;;;;;7.47;4.15;;;;;;;;;;5043747;28;20092;-62
2024/03/14 10:30:52;;;;;;;7.10;4.22;;;;;;;;;;5026747;28;20055;-61
2024/03/14 10:33:18;;;;;;;5.68;4.07;;;;;;;;;;5038616;28;20044;-60
2024/03/14 10:35:45;;;;;;;7.78;4.25;;;;;;;;;;5054753;28;20140;-61
2024/03/14 10:38:14;;;;;;;7.18;4.88;;;;;;;;;;5038408;28;20140;-62
2024/03/14 10:40:41;;;;;;;6.18;4.75;;;;;;;;;;5039701;28;20064;-61
2024/03/14 10:43:10;;;;;;;4.80;4.00;;;;;;;;;;5021968;28;20042;-60
2024/03/14 10:45:37;;;;;;;4.72;3.72;;;;;;;;;;5038965;28;20085;-62
2024/03/14 10:48:05;;;;;;;6.80;4.13;;;;;;;;;;5029905;28;20052;-61
2024/03/14 10:50:34;;;;;;;5.90;3.80;;;;;;;;;;5032893;28;20051;-61
2024/03/14 10:53:01;;;;;;;4.57;3.80;;;;;;;;;;5038026;28;20445;-62
2024/03/14 10:55:30;;;;;;;5.45;3.72;;;;;;;;;;5030700;28;20627;-61
2024/03/14 10:57:58;;;;;;;4.32;3.35;;;;;;;;;;5046761;28;20037;-61
2024/03/14 11:00:24;;;;;;;3.75;3.30;;;;;;;;;;5027394;28;20108;-62
2024/03/14 11:02:52;;;;;;;4.53;3.63;;;;;;;;;;5053382;28;20051;-61
2024/03/14 11:05:22;;;;;;;5.63;3.63;;;;;;;;;;5040009;28;20084;-62
2024/03/14 11:07:53;;;;;;;4.30;3.75;;;;;;;;;;5041468;28;20059;-61
2024/03/14 11:10:24;;;;;;;5.50;3.55;;;;;;;;;;5045539;28;20099;-60
2024/03/14 11:12:54;;;;;;;6.53;3.45;;;;;;;;;;5021354;28;20107;-61
2024/03/14 11:15:22;;;;;;;4.53;2.97;;;;;;;;;;5035694;28;20053;-60
2024/03/14 11:17:50;;;;;;;4.93;3.30;;;;;;;;;;5027816;28;20053;-61
2024/03/14 11:20:25;;;;;;;3.95;3.00;;;;;;;;;;5057557;28;20052;-61
2024/03/14 11:22:52;;;;;;;3.80;2.88;;;;;;;;;;5022486;28;20532;-62
2024/03/14 11:25:20;;;;;;;4.18;2.90;;;;;;;;;;5039348;28;20076;-62
2024/03/14 11:27:47;;;;;;;4.00;3.15;;;;;;;;;;5023140;28;20049;-61
2024/03/14 11:30:19;;;;;;;3.65;2.53;;;;;;;;;;5017536;28;20060;-63
2024/03/14 11:32:55;;;;;;;4.47;2.90;;;;;;;;;;5037982;28;20505;-62
2024/03/14 11:35:31;;;;;;;2.95;2.10;;;;;;;;;;5022310;28;20048;-61
2024/03/14 11:37:58;;;;;;;4.82;2.42;;;;;;;;;;5032211;28;20045;-62
2024/03/14 11:40:30;;;;;;;3.65;2.20;;;;;;;;;;5052211;28;20056;-61
2024/03/14 11:42:58;;;;;;;4.15;2.88;;;;;;;;;;5033706;28;20037;-62
2024/03/14 11:45:26;;;;;;;4.45;2.67;;;;;;;;;;5023853;28;20046;-63
2024/03/14 11:47:54;;;;;;;3.95;2.60;;;;;;;;;;5027487;28;20045;-63
2024/03/14 11:50:22;;;;;;;4.78;2.53;;;;;;;;;;5033413;28;20061;-63
2024/03/14 11:52:53;;;;;;;4.05;2.60;;;;;;;;;;5039942;28;20045;-64
2024/03/14 11:55:22;;;;;;;4.43;2.30;;;;;;;;;;5033471;28;20520;-62
2024/03/14 11:57:48;;;;;;;3.97;1.80;;;;;;;;;;5043921;28;20084;-62
2024/03/14 12:00:20;;;;;;;5.28;2.20;;;;;;;;;;5032281;28;20057;-63
2024/03/14 12:02:49;;;;;;;2.70;2.22;;;;;;;;;;5046255;28;20054;-62
2024/03/14 12:05:25;;;;;;;3.60;2.13;;;;;;;;;;5030417;28;20045;-63
2024/03/14 12:07:54;;;;;;;3.83;2.10;;;;;;;;;;5030437;28;20037;-62
2024/03/14 12:10:24;;;;;;;3.58;2.53;;;;;;;;;;5037579;28;20048;-62
2024/03/14 12:12:56;;;;;;;3.33;2.60;;;;;;;;;;5032397;28;20135;-63
2024/03/14 12:15:23;;;;;;;3.40;2.70;;;;;;;;;;5039624;28;20056;-63
2024/03/14 12:17:55;;;;;;;4.07;2.40;;;;;;;;;;5028319;28;20412;-63
2024/03/14 12:20:28;;;;;;;3.97;2.30;;;;;;;;;;5033942;28;20095;-62
2024/03/14 12:22:56;;;;;;;4.43;2.50;;;;;;;;;;5034166;28;20049;-64
2024/03/14 12:25:24;;;;;;;;;;;;;;;;;;5033702;28;20387;-61
2024/03/14 12:27:51;;;;;;;2.92;2.03;;;;;;;;;;5038368;28;19928;-62
2024/03/14 12:30:20;;;;;;;3.30;2.30;;;;;;;;;;5044342;28;20044;-63
2024/03/14 12:32:54;;;;;;;4.35;2.10;;;;;;;;;;5032064;28;20080;-63
2024/03/14 12:35:22;;;;;;;2.70;1.80;;;;;;;;;;5029833;28;20045;-63
2024/03/14 12:37:49;;;;;;;3.08;2.25;;;;;;;;;;5035497;28;20084;-63
2024/03/14 12:40:19;;;;;;;4.07;2.50;;;;;;;;;;5028107;28;20085;-63
2024/03/14 12:42:53;;;;;;;3.95;2.13;;;;;;;;;;5026256;28;20055;-63
2024/03/14 12:45:20;;;;;;;6.05;2.17;;;;;;;;;;5031159;28;20140;-63
2024/03/14 12:47:47;;;;;;;2.85;2.03;;;;;;;;;;5047338;28;20045;-61
2024/03/14 12:50:24;;;;;;;3.65;2.20;;;;;;;;;;5029894;28;20045;-62
2024/03/14 12:53:03;;;;;;;2.75;2.00;;;;;;;;;;5046481;28;20053;-61
2024/03/14 12:55:31;;;;;;;3.65;2.60;;;;;;;;;;5041117;28;20552;-60
2024/03/14 12:58:00;;;;;;;4.85;2.58;;;;;;;;;;5040560;28;20052;-61
2024/03/14 13:00:31;;;;;;;4.55;2.60;;;;;;;;;;5042526;28;20494;-68
2024/03/14 13:03:00;;;;;;;3.67;3.00;;;;;;;;;;5036312;28;20046;-61
2024/03/14 13:05:28;;;;;;;3.95;2.58;;;;;;;;;;5037528;28;20052;-61
2024/03/14 13:07:55;;;;;;;;;;;;;;;;;;5036451;28;20053;-62
2024/03/14 13:10:22;;;;;;;3.47;2.60;;;;;;;;;;5036028;28;19924;-61
2024/03/14 13:12:55;;;;;;;3.17;2.38;;;;;;;;;;5043358;28;20065;-61
2024/03/14 13:15:22;;;;;;;4.70;3.20;;;;;;;;;;5054772;28;20147;-63
2024/03/14 13:17:49;;;;;;;4.68;2.75;;;;;;;;;;5043814;28;20776;-61
2024/03/14 13:20:23;;;;;;;4.10;3.22;;;;;;;;;;5048714;28;20071;-61
2024/03/14 13:22:50;;;;;;;6.20;3.35;;;;;;;;;;5041845;28;20051;-60
2024/03/14 13:25:16;;;;;;;6.10;3.70;;;;;;;;;;5042813;28;20054;-60
2024/03/14 13:27:43;;;;;;;6.45;3.42;;;;;;;;;;5049254;28;20061;-61
2024/03/14 13:30:12;;;;;;;4.10;3.60;;;;;;;;;;5045928;28;20048;-60
2024/03/14 13:32:39;;;;;;;5.30;3.92;;;;;;;;;;5025394;28;20111;-65
2024/03/14 13:35:10;;;;;;;8.43;4.32;;;;;;;;;;5029368;28;20049;-64
2024/03/14 13:37:37;;;;;;;8.30;5.75;;;;;;;;;;5031718;28;20132;-64
2024/03/14 13:40:10;;;;;;;5.38;3.78;;;;;;;;;;5034988;28;20048;-64
2024/03/14 13:42:40;;;;;;;5.82;3.83;;;;;;;;;;5044318;28;20052;-65
2024/03/14 13:45:07;;;;;;;5.05;3.90;;;;;;;;;;5039524;28;20064;-64
2024/03/14 13:47:33;;;;;;;4.43;3.42;;;;;;;;;;5031247;28;20054;-64
2024/03/14 13:50:04;;;;;;;4.32;3.50;;;;;;;;;;5033891;28;20132;-64
2024/03/14 13:52:32;;;;;;;5.47;4.15;;;;;;;;;;5049149;28;20045;-64
2024/03/14 13:55:01;;;;;;;3.92;3.20;;;;;;;;;;5052584;28;20048;-64
2024/03/14 13:57:27;;;;;;;5.32;3.70;;;;;;;;;;5035698;28;20046;-64
2024/03/14 14:00:00;;;;;;;5.20;4.03;;;;;;;;;;5032711;28;20520;-64
2024/03/14 14:02:27;;;;;;;4.70;3.22;;;;;;;;;;5026973;28;20880;-76
2024/03/14 14:04:54;;;;;;;4.47;3.40;;;;;;;;;;5045210;28;20077;-76
2024/03/14 14:07:20;;;;;;;4.32;3.40;;;;;;;;;;5038306;28;20107;-76
2024/03/14 14:09:49;;;;;;;5.90;3.67;;;;;;;;;;5053452;28;20124;-76
2024/03/14 14:12:15;;;;;;;4.38;3.35;;;;;;;;;;5048734;28;20045;-77
2024/03/14 14:14:41;;;;;;;5.97;3.60;;;;;;;;;;5034198;28;20402;-76
2024/03/14 14:17:08;;;;;;;4.25;3.35;;;;;;;;;;5047740;28;20079;-76
2024/03/14 14:19:36;;;;;;;5.25;3.63;;;;;;;;;;5037760;28;20080;-76
2024/03/14 14:22:08;;;;;;;6.30;3.55;;;;;;;;;;5048736;28;20068;-76
2024/03/14 14:24:34;;;;;;;4.32;3.05;;;;;;;;;;5044796;28;20049;-76
2024/03/14 14:27:01;;;;;;;6.63;3.03;;;;;;;;;;5040690;28;20627;-76
2024/03/14 14:29:29;;;;;;;4.10;3.20;;;;;;;;;;5033178;28;20103;-76
2024/03/14 14:31:55;;;;;;;4.05;3.15;;;;;;;;;;5052804;28;20083;-75
2024/03/14 14:34:22;;;;;;;5.50;3.30;;;;;;;;;;5054440;28;20455;-75
2024/03/14 14:36:49;;;;;;;8.27;3.47;;;;;;;;;;5035091;28;20049;-75
2024/03/14 14:39:15;;;;;;;5.63;3.38;;;;;;;;;;5038351;28;20549;-76
2024/03/14 14:41:42;;;;;;;6.15;3.50;;;;;;;;;;5019977;28;20052;-75
2024/03/14 14:44:09;;;;;;;6.72;3.13;;;;;;;;;;5020538;28;20049;-76
2024/03/14 14:46:35;;;;;;;5.15;3.35;;;;;;;;;;5050829;28;20607;-76